createdAt,value
2022-12-12T00:00:59.985Z,97956.44
2022-12-12T00:06:26.650Z,97955.13
2022-12-12T00:11:48.380Z,97960.09
2022-12-12T00:17:10.136Z,97958.16
2022-12-12T00:22:32.602Z,97957.91
2022-12-12T00:27:54.340Z,97958.06
2022-12-12T00:33:16.675Z,97955.22
2022-12-12T00:38:38.516Z,97962.84
2022-12-12T00:44:00.760Z,97966.13
2022-12-12T00:49:22.492Z,97967.38
2022-12-12T00:54:44.258Z,97968.75
2022-12-12T01:00:07.730Z,97971.47
2022-12-12T01:05:29.548Z,97963.03
2022-12-12T01:10:51.571Z,97962.78
2022-12-12T01:16:13.991Z,97965.50
2022-12-12T01:21:36.794Z,97958.94
2022-12-12T01:26:58.638Z,97964.66
2022-12-12T01:32:20.383Z,97971.34
2022-12-12T01:37:42.609Z,97965.81
2022-12-12T01:43:11.383Z,97967.75
2022-12-12T01:48:36.923Z,97962.19
2022-12-12T01:54:07.192Z,97978.59
2022-12-12T01:59:29.497Z,97975.06
2022-12-12T02:04:51.531Z,97985.91
2022-12-12T02:10:13.277Z,97979.25
2022-12-12T02:15:44.518Z,97980.53
2022-12-12T02:21:18.119Z,97979.31
2022-12-12T02:27:17.225Z,97975.75
2022-12-12T02:33:09.187Z,97981.78
2022-12-12T02:38:39.744Z,97993.28
2022-12-12T02:44:26.165Z,97992.94
2022-12-12T02:49:54.471Z,97995.94
2022-12-12T02:55:17.158Z,97996.06
2022-12-12T03:00:52.415Z,97988.63
2022-12-12T03:07:01.110Z,97992.00
2022-12-12T03:12:33.911Z,97988.56
2022-12-12T03:18:15.844Z,97994.66
2022-12-12T03:23:44.601Z,97992.34
2022-12-12T03:29:11.199Z,97992.50
2022-12-12T03:34:38.218Z,98001.13
2022-12-12T03:40:11.357Z,98002.09
2022-12-12T03:45:43.041Z,97999.56
2022-12-12T03:51:11.351Z,98003.84
2022-12-12T03:56:42.906Z,98008.31
2022-12-12T04:02:10.685Z,98004.09
2022-12-12T04:07:39.367Z,98012.09
2022-12-12T04:13:32.449Z,98016.09
2022-12-12T04:19:09.077Z,98012.88
2022-12-12T04:24:58.191Z,98023.09
2022-12-12T04:30:20.116Z,98022.06
2022-12-12T04:35:46.090Z,98021.00
2022-12-12T04:41:10.276Z,98024.44
2022-12-12T04:46:33.929Z,98025.91
2022-12-12T04:52:02.114Z,98037.56
2022-12-12T04:57:39.756Z,98039.00
2022-12-12T05:03:19.108Z,98032.69
2022-12-12T05:08:47.378Z,98034.88
2022-12-12T05:14:10.322Z,98043.59
2022-12-12T05:19:32.121Z,98043.69
2022-12-12T05:24:53.813Z,98053.56
2022-12-12T05:30:15.637Z,98046.84
2022-12-12T05:35:37.434Z,98044.44
2022-12-12T05:40:59.172Z,98048.53
2022-12-12T05:46:21.058Z,98049.41
2022-12-12T05:51:42.836Z,98050.97
2022-12-12T05:57:04.545Z,98057.78
2022-12-12T06:02:26.300Z,98057.78
2022-12-12T06:07:48.299Z,98063.34
2022-12-12T06:13:10.193Z,98070.84
2022-12-12T06:18:31.905Z,98072.88
2022-12-12T06:23:53.627Z,98078.00
2022-12-12T06:29:15.544Z,98081.59
2022-12-12T06:34:38.363Z,98084.97
2022-12-12T06:40:00.164Z,98084.13
2022-12-12T06:45:21.877Z,98084.91
2022-12-12T06:50:45.310Z,98088.47
2022-12-12T06:56:18.606Z,98091.56
2022-12-12T07:01:40.600Z,98101.00
2022-12-12T07:07:02.387Z,98103.09
2022-12-12T07:12:24.135Z,98106.97
2022-12-12T07:17:47.185Z,98101.13
2022-12-12T07:23:09.099Z,98110.59
2022-12-12T07:28:31.157Z,98104.72
2022-12-12T07:33:54.327Z,98112.56
2022-12-12T07:39:20.804Z,98128.03
2022-12-12T07:44:42.937Z,98128.06
2022-12-12T07:50:05.072Z,98138.22
2022-12-12T07:55:27.232Z,98135.34
2022-12-12T08:00:49.029Z,98138.72
2022-12-12T08:06:12.224Z,98131.25
2022-12-12T08:11:33.946Z,98141.50
2022-12-12T08:16:56.260Z,98143.16
2022-12-12T08:22:18.504Z,98142.50
2022-12-12T08:27:40.862Z,98152.31
2022-12-12T08:33:07.960Z,98165.56
2022-12-12T08:38:30.363Z,98163.31
2022-12-12T08:43:52.046Z,98161.56
2022-12-12T08:49:13.743Z,98170.13
2022-12-12T08:54:36.818Z,98172.66
2022-12-12T08:59:58.526Z,98171.13
2022-12-12T09:05:20.252Z,98177.00
2022-12-12T09:10:42.909Z,98173.44
2022-12-12T09:16:06.027Z,98182.81
2022-12-12T09:21:27.857Z,98182.09
2022-12-12T09:26:49.617Z,98200.66
2022-12-12T09:32:11.573Z,98195.94
2022-12-12T09:37:33.663Z,98198.09
2022-12-12T09:42:56.059Z,98201.41
2022-12-12T09:48:35.459Z,98203.81
2022-12-12T09:53:57.542Z,98186.44
2022-12-12T09:59:27.591Z,98181.19
2022-12-12T10:05:01.209Z,98178.13
2022-12-12T10:10:27.579Z,98172.50
2022-12-12T10:15:56.387Z,98173.88
2022-12-12T10:21:24.351Z,98173.88
2022-12-12T10:26:46.117Z,98179.88
2022-12-12T10:32:30.048Z,98169.25
2022-12-12T10:38:16.120Z,98173.50
2022-12-12T10:43:47.380Z,98171.63
2022-12-12T10:49:22.959Z,98172.53
2022-12-12T10:55:00.834Z,98170.66
2022-12-12T11:00:35.272Z,98156.59
2022-12-12T11:05:57.851Z,98154.78
2022-12-12T11:11:22.745Z,98159.09
2022-12-12T11:16:47.520Z,98141.81
2022-12-12T11:22:11.612Z,98139.91
2022-12-12T11:27:37.870Z,98135.50
2022-12-12T11:32:59.841Z,98128.31
2022-12-12T11:38:26.997Z,98125.03
2022-12-12T11:43:48.695Z,98127.78
2022-12-12T11:49:19.130Z,98124.84
2022-12-12T11:54:40.913Z,98127.25
2022-12-12T12:00:11.422Z,98125.88
2022-12-12T12:05:47.324Z,98122.44
2022-12-12T12:11:15.170Z,98109.25
2022-12-12T12:16:48.609Z,98112.84
2022-12-12T12:22:16.075Z,98118.31
2022-12-12T12:27:51.539Z,98115.47
2022-12-12T12:33:31.518Z,98109.34
2022-12-12T12:39:38.042Z,98104.81
2022-12-12T12:45:20.939Z,98100.41
2022-12-12T12:51:01.706Z,98096.88
2022-12-12T12:56:27.582Z,98089.88
2022-12-12T13:01:51.604Z,98089.69
2022-12-12T13:07:40.924Z,98096.94
2022-12-12T13:13:21.418Z,98091.94
2022-12-12T13:18:46.669Z,98090.53
2022-12-12T13:24:20.021Z,98089.41
2022-12-12T13:30:05.187Z,98091.72
2022-12-12T13:35:41.763Z,98087.84
2022-12-12T13:41:06.541Z,98077.16
2022-12-12T13:46:35.055Z,98093.38
2022-12-12T13:52:27.750Z,98086.06
2022-12-12T13:58:02.752Z,98081.47
2022-12-12T14:03:29.790Z,98081.56
2022-12-12T14:08:51.962Z,98078.19
2022-12-12T14:14:20.554Z,98093.66
2022-12-12T14:19:42.399Z,98095.56
2022-12-12T14:25:08.242Z,98097.44
2022-12-12T14:30:45.423Z,98095.91
2022-12-12T14:36:25.899Z,98095.69
2022-12-12T14:41:48.220Z,98088.84
2022-12-12T14:47:09.998Z,98088.09
2022-12-12T14:52:31.731Z,98082.44
2022-12-12T14:57:53.433Z,98067.38
2022-12-12T15:03:15.976Z,98050.53
2022-12-12T15:08:38.244Z,98066.38
2022-12-12T15:14:01.609Z,98073.06
2022-12-12T15:19:27.619Z,98077.78
2022-12-12T15:24:49.947Z,98079.13
2022-12-12T15:30:14.411Z,98087.19
2022-12-12T15:35:36.305Z,98086.38
2022-12-12T15:41:00.883Z,98087.63
2022-12-12T15:46:22.823Z,98088.50
2022-12-12T15:51:44.687Z,98087.75
2022-12-12T15:57:06.450Z,98095.56
2022-12-12T16:02:31.097Z,98086.31
2022-12-12T16:07:52.906Z,98085.66
2022-12-12T16:13:17.382Z,98084.72
2022-12-12T16:18:40.568Z,98081.41
2022-12-12T16:24:19.687Z,98081.34
2022-12-12T16:29:41.457Z,98088.09
2022-12-12T16:35:03.866Z,98098.59
2022-12-12T16:40:25.598Z,98107.25
2022-12-12T16:45:50.181Z,98114.00
2022-12-12T16:51:21.777Z,98112.78
2022-12-12T16:56:44.614Z,98121.06
2022-12-12T17:02:20.322Z,98125.41
2022-12-12T17:07:42.093Z,98128.47
2022-12-12T17:13:05.683Z,98128.69
2022-12-12T17:18:27.439Z,98121.81
2022-12-12T17:23:49.179Z,98129.41
2022-12-12T17:29:10.956Z,98126.91
2022-12-12T17:34:32.741Z,98117.47
2022-12-12T17:39:54.653Z,98117.56
2022-12-12T17:45:16.632Z,98115.53
2022-12-12T17:50:41.788Z,98116.22
2022-12-12T17:56:07.926Z,98117.59
2022-12-12T18:01:33.796Z,98123.44
2022-12-12T18:06:55.665Z,98122.00
2022-12-12T18:12:17.399Z,98123.38
2022-12-12T18:17:40.647Z,98115.56
2022-12-12T18:23:02.975Z,98117.22
2022-12-12T18:28:25.085Z,98118.06
2022-12-12T18:33:47.226Z,98116.31
2022-12-12T18:39:09.053Z,98120.53
2022-12-12T18:44:30.805Z,98112.75
2022-12-12T18:49:52.526Z,98116.25
2022-12-12T18:55:14.352Z,98120.91
2022-12-12T19:00:39.825Z,98124.34
2022-12-12T19:06:10.661Z,98118.63
2022-12-12T19:11:35.097Z,98114.50
2022-12-12T19:16:57.034Z,98117.56
2022-12-12T19:22:43.901Z,98118.59
2022-12-12T19:28:00.642Z,98113.72
2022-12-12T19:33:22.488Z,98113.44
2022-12-12T19:38:45.101Z,98111.94
2022-12-12T19:44:12.293Z,98105.00
2022-12-12T19:49:34.000Z,98103.38
2022-12-12T19:54:55.786Z,98103.47
2022-12-12T20:00:19.779Z,98114.03
2022-12-12T20:05:42.306Z,98115.66
2022-12-12T20:11:06.779Z,98103.47
2022-12-12T20:16:29.641Z,98103.38
2022-12-12T20:22:02.143Z,98103.56
2022-12-12T20:27:24.527Z,98109.00
2022-12-12T20:32:46.332Z,98101.56
2022-12-12T20:38:08.103Z,98109.91
2022-12-12T20:43:29.929Z,98109.16
2022-12-12T20:48:51.647Z,98110.16
2022-12-12T20:54:14.660Z,98111.91
2022-12-12T20:59:36.427Z,98112.38
2022-12-12T21:04:58.196Z,98116.19
2022-12-12T21:10:19.973Z,98103.06
2022-12-12T21:15:41.863Z,98105.63
2022-12-12T21:21:04.552Z,98102.13
2022-12-12T21:26:29.389Z,98096.09
2022-12-12T21:31:52.523Z,98085.28
2022-12-12T21:37:14.835Z,98077.66
2022-12-12T21:42:36.590Z,98089.28
2022-12-12T21:47:58.318Z,98089.88
2022-12-12T21:53:35.336Z,98084.19
2022-12-12T21:58:57.498Z,98081.53
2022-12-12T22:04:19.472Z,98077.91
2022-12-12T22:09:42.429Z,98077.97
2022-12-12T22:15:04.590Z,98080.47
2022-12-12T22:20:26.328Z,98084.09
2022-12-12T22:25:48.613Z,98083.19
2022-12-12T22:31:11.066Z,98082.72
2022-12-12T22:36:35.473Z,98080.84
2022-12-12T22:41:57.337Z,98083.19
2022-12-12T22:47:19.190Z,98074.38
2022-12-12T22:52:40.907Z,98068.19
2022-12-12T22:58:03.154Z,98068.25
2022-12-12T23:03:24.855Z,98060.44
2022-12-12T23:08:51.641Z,98054.50
2022-12-12T23:14:16.773Z,98049.94
2022-12-12T23:19:38.486Z,98043.78
2022-12-12T23:25:00.559Z,98037.13
2022-12-12T23:30:22.248Z,98037.81
2022-12-12T23:35:50.985Z,98038.88
2022-12-12T23:41:15.570Z,98022.59
2022-12-12T23:46:37.391Z,98025.22
2022-12-12T23:51:59.773Z,98025.38
2022-12-12T23:57:21.569Z,98015.41
